createdAt,value
2023-07-20T00:00:56.735Z,99560.78
2023-07-20T00:03:20.193Z,99560.19
2023-07-20T00:05:25.924Z,99563.34
2023-07-20T00:07:27.480Z,99569.19
2023-07-20T00:09:29.098Z,99568.63
2023-07-20T00:11:30.750Z,99566.22
2023-07-20T00:13:32.224Z,99570.19
2023-07-20T00:15:33.836Z,99571.00
2023-07-20T00:17:35.274Z,99569.13
2023-07-20T00:19:36.754Z,99571.28
2023-07-20T00:21:41.303Z,99565.94
2023-07-20T00:23:42.734Z,99564.06
2023-07-20T00:25:44.184Z,99565.13
2023-07-20T00:27:45.632Z,99554.22
2023-07-20T00:29:47.206Z,99560.91
2023-07-20T00:31:51.394Z,99565.16
2023-07-20T00:33:53.436Z,99559.06
2023-07-20T00:35:54.891Z,99560.69
2023-07-20T00:37:56.345Z,99559.34
2023-07-20T00:39:57.999Z,99561.22
2023-07-20T00:41:59.434Z,99554.03
2023-07-20T00:44:00.989Z,99557.25
2023-07-20T00:46:04.043Z,99556.44
2023-07-20T00:48:07.241Z,99553.22
2023-07-20T00:50:10.466Z,99563.88
2023-07-20T00:52:13.703Z,99559.34
2023-07-20T00:54:16.159Z,99558.28
2023-07-20T00:56:18.205Z,99558.81
2023-07-20T00:58:20.044Z,99557.53
2023-07-20T01:00:21.550Z,99559.94
2023-07-20T01:02:23.089Z,99559.41
2023-07-20T01:04:24.633Z,99558.31
2023-07-20T01:06:36.418Z,99557.53
2023-07-20T01:08:48.925Z,99555.41
2023-07-20T01:11:06.613Z,99558.06
2023-07-20T01:13:10.600Z,99556.75
2023-07-20T01:15:13.172Z,99548.75
2023-07-20T01:17:14.874Z,99548.75
2023-07-20T01:19:16.515Z,99550.88
2023-07-20T01:21:25.914Z,99556.44
2023-07-20T01:23:27.592Z,99552.50
2023-07-20T01:25:52.293Z,99545.00
2023-07-20T01:27:59.997Z,99553.25
2023-07-20T01:30:35.240Z,99545.50
2023-07-20T01:32:38.476Z,99544.69
2023-07-20T01:34:41.833Z,99543.38
2023-07-20T01:36:45.196Z,99547.06
2023-07-20T01:38:47.678Z,99542.84
2023-07-20T01:40:49.522Z,99541.19
2023-07-20T01:42:52.898Z,99547.00
2023-07-20T01:44:54.612Z,99547.00
2023-07-20T01:46:56.068Z,99543.25
2023-07-20T01:48:58.204Z,99548.06
2023-07-20T01:50:59.628Z,99548.56
2023-07-20T01:53:01.936Z,99541.09
2023-07-20T01:55:03.685Z,99544.00
2023-07-20T01:57:05.609Z,99543.75
2023-07-20T01:59:07.069Z,99543.25
2023-07-20T02:01:08.642Z,99540.81
2023-07-20T02:03:10.338Z,99534.44
2023-07-20T02:05:11.885Z,99537.66
2023-07-20T02:07:13.404Z,99537.91
2023-07-20T02:09:14.826Z,99538.16
2023-07-20T02:11:16.281Z,99535.97
2023-07-20T02:13:17.828Z,99530.91
2023-07-20T02:15:19.957Z,99527.97
2023-07-20T02:17:21.457Z,99519.16
2023-07-20T02:19:23.020Z,99525.00
2023-07-20T02:21:24.513Z,99518.03
2023-07-20T02:23:25.920Z,99516.94
2023-07-20T02:25:27.427Z,99519.06
2023-07-20T02:27:28.899Z,99532.94
2023-07-20T02:29:30.343Z,99526.53
2023-07-20T02:31:32.062Z,99522.28
2023-07-20T02:33:33.670Z,99524.13
2023-07-20T02:35:35.112Z,99519.06
2023-07-20T02:37:37.982Z,99524.94
2023-07-20T02:39:40.249Z,99527.59
2023-07-20T02:41:42.696Z,99523.88
2023-07-20T02:43:44.144Z,99524.94
2023-07-20T02:45:48.203Z,99531.84
2023-07-20T02:47:49.698Z,99523.34
2023-07-20T02:49:51.239Z,99531.34
2023-07-20T02:51:52.685Z,99530.84
2023-07-20T02:53:54.174Z,99532.44
2023-07-20T02:55:55.618Z,99526.88
2023-07-20T02:57:57.107Z,99532.19
2023-07-20T02:59:58.576Z,99537.81
2023-07-20T03:02:00.020Z,99533.28
2023-07-20T03:04:01.603Z,99532.22
2023-07-20T03:06:03.370Z,99535.97
2023-07-20T03:08:07.210Z,99542.09
2023-07-20T03:10:10.466Z,99541.84
2023-07-20T03:12:11.945Z,99545.56
2023-07-20T03:14:13.817Z,99549.84
2023-07-20T03:16:18.895Z,99555.47
2023-07-20T03:18:20.528Z,99552.00
2023-07-20T03:20:21.952Z,99548.81
2023-07-20T03:22:23.469Z,99554.44
2023-07-20T03:24:25.081Z,99558.72
2023-07-20T03:26:26.590Z,99558.41
2023-07-20T03:28:28.090Z,99556.03
2023-07-20T03:30:29.540Z,99556.00
2023-07-20T03:32:31.010Z,99557.09
2023-07-20T03:34:32.963Z,99546.50
2023-07-20T03:36:34.423Z,99552.34
2023-07-20T03:38:35.941Z,99566.22
2023-07-20T03:40:37.398Z,99557.09
2023-07-20T03:42:42.378Z,99568.34
2023-07-20T03:44:43.867Z,99559.28
2023-07-20T03:46:45.401Z,99559.28
2023-07-20T03:48:46.892Z,99551.25
2023-07-20T03:50:50.028Z,99556.63
2023-07-20T03:52:51.515Z,99548.88
2023-07-20T03:54:52.970Z,99552.34
2023-07-20T03:56:54.377Z,99560.34
2023-07-20T03:58:55.803Z,99559.25
2023-07-20T04:00:58.380Z,99557.63
2023-07-20T04:03:00.366Z,99556.28
2023-07-20T04:05:01.880Z,99554.38
2023-07-20T04:07:03.413Z,99562.13
2023-07-20T04:09:06.388Z,99563.22
2023-07-20T04:11:07.894Z,99560.56
2023-07-20T04:13:09.344Z,99570.19
2023-07-20T04:15:11.054Z,99572.59
2023-07-20T04:17:14.340Z,99568.91
2023-07-20T04:19:15.828Z,99557.44
2023-07-20T04:21:17.283Z,99566.75
2023-07-20T04:23:18.855Z,99570.00
2023-07-20T04:25:20.399Z,99569.72
2023-07-20T04:27:21.845Z,99564.44
2023-07-20T04:29:23.326Z,99568.44
2023-07-20T04:31:24.806Z,99566.56
2023-07-20T04:33:30.042Z,99570.34
2023-07-20T04:35:54.769Z,99577.53
2023-07-20T04:37:56.481Z,99584.75
2023-07-20T04:39:57.926Z,99578.94
2023-07-20T04:41:59.378Z,99578.41
2023-07-20T04:44:00.850Z,99581.88
2023-07-20T04:46:02.367Z,99584.28
2023-07-20T04:48:04.338Z,99576.81
2023-07-20T04:50:06.477Z,99587.19
2023-07-20T04:52:08.382Z,99590.84
2023-07-20T04:54:10.455Z,99594.31
2023-07-20T04:56:11.955Z,99589.22
2023-07-20T04:58:13.396Z,99596.19
2023-07-20T05:00:15.386Z,99596.53
2023-07-20T05:02:16.816Z,99591.50
2023-07-20T05:04:19.177Z,99589.38
2023-07-20T05:06:21.073Z,99589.94
2023-07-20T05:08:23.447Z,99594.94
2023-07-20T05:10:25.211Z,99594.97
2023-07-20T05:12:26.900Z,99595.31
2023-07-20T05:14:28.464Z,99592.09
2023-07-20T05:16:29.946Z,99590.69
2023-07-20T05:18:32.377Z,99591.03
2023-07-20T05:20:34.432Z,99588.69
2023-07-20T05:22:35.957Z,99597.81
2023-07-20T05:24:37.420Z,99596.47
2023-07-20T05:26:39.247Z,99591.44
2023-07-20T05:28:40.765Z,99596.31
2023-07-20T05:30:42.253Z,99597.91
2023-07-20T05:32:43.745Z,99596.94
2023-07-20T05:34:45.310Z,99611.09
2023-07-20T05:36:46.757Z,99610.31
2023-07-20T05:38:48.329Z,99601.69
2023-07-20T05:40:49.806Z,99608.13
2023-07-20T05:42:53.255Z,99610.81
2023-07-20T05:44:56.355Z,99612.97
2023-07-20T05:46:58.646Z,99615.38
2023-07-20T05:49:00.293Z,99616.94
2023-07-20T05:51:01.799Z,99621.47
2023-07-20T05:53:03.266Z,99622.25
2023-07-20T05:55:05.081Z,99622.00
2023-07-20T05:57:06.796Z,99630.31
2023-07-20T05:59:08.275Z,99627.88
2023-07-20T06:01:09.823Z,99636.63
2023-07-20T06:03:11.468Z,99642.47
2023-07-20T06:05:13.255Z,99638.25
2023-07-20T06:07:14.765Z,99645.22
2023-07-20T06:09:16.321Z,99646.34
2023-07-20T06:11:18.402Z,99646.38
2023-07-20T06:13:19.979Z,99652.69
2023-07-20T06:15:26.931Z,99648.19
2023-07-20T06:17:28.894Z,99651.88
2023-07-20T06:19:30.388Z,99660.81
2023-07-20T06:21:31.839Z,99659.56
2023-07-20T06:23:33.596Z,99657.53
2023-07-20T06:25:35.096Z,99657.91
2023-07-20T06:27:36.531Z,99660.84
2023-07-20T06:29:37.967Z,99664.31
2023-07-20T06:31:39.591Z,99661.13
2023-07-20T06:33:41.196Z,99666.97
2023-07-20T06:35:44.108Z,99668.06
2023-07-20T06:37:45.586Z,99665.38
2023-07-20T06:41:53.256Z,99662.44
2023-07-20T06:43:59.341Z,99669.13
2023-07-20T06:46:01.067Z,99666.75
2023-07-20T06:48:03.294Z,99659.25
2023-07-20T06:50:05.188Z,99662.47
2023-07-20T06:52:06.963Z,99661.94
2023-07-20T06:54:08.433Z,99662.47
2023-07-20T06:56:09.909Z,99664.34
2023-07-20T06:58:12.837Z,99665.94
2023-07-20T07:00:14.663Z,99660.81
2023-07-20T07:02:16.162Z,99660.31
2023-07-20T07:04:17.682Z,99670.22
2023-07-20T07:06:19.245Z,99674.25
2023-07-20T07:08:20.757Z,99670.22
2023-07-20T07:10:22.255Z,99672.13
2023-07-20T07:12:23.728Z,99673.19
2023-07-20T07:14:26.547Z,99678.25
2023-07-20T07:16:29.903Z,99675.88
2023-07-20T07:18:32.025Z,99673.72
2023-07-20T07:20:33.551Z,99672.66
2023-07-20T07:22:35.082Z,99676.94
2023-07-20T07:24:37.115Z,99682.28
2023-07-20T07:26:38.580Z,99684.41
2023-07-20T07:28:40.153Z,99687.63
2023-07-20T07:30:41.812Z,99679.06
2023-07-20T07:32:43.427Z,99684.13
2023-07-20T07:34:47.447Z,99690.06
2023-07-20T07:36:48.933Z,99686.28
2023-07-20T07:39:31.571Z,99696.16
2023-07-20T07:41:12.170Z,99697.19
2023-07-20T07:43:14.953Z,99695.28
2023-07-20T07:45:17.632Z,99704.28
2023-07-20T07:47:19.105Z,99699.88
2023-07-20T07:49:20.572Z,99696.78
2023-07-20T07:51:22.079Z,99695.91
2023-07-20T07:53:23.617Z,99693.72
2023-07-20T07:55:26.721Z,99699.16
2023-07-20T07:57:28.201Z,99704.94
2023-07-20T07:59:29.861Z,99705.81
2023-07-20T08:01:31.413Z,99699.66
2023-07-20T08:03:32.883Z,99702.00
2023-07-20T08:05:36.001Z,99702.09
2023-07-20T08:07:37.922Z,99698.06
2023-07-20T08:09:39.371Z,99700.09
2023-07-20T08:11:41.018Z,99704.75
2023-07-20T08:13:42.710Z,99708.56
2023-07-20T08:15:50.710Z,99713.94
2023-07-20T08:17:53.305Z,99715.00
2023-07-20T08:19:55.009Z,99719.00
2023-07-20T08:21:56.439Z,99715.84
2023-07-20T08:23:57.920Z,99712.91
2023-07-20T08:25:59.569Z,99715.38
2023-07-20T08:28:02.035Z,99720.22
2023-07-20T08:30:05.485Z,99720.00
2023-07-20T08:32:07.458Z,99727.22
2023-07-20T08:34:20.337Z,99726.66
2023-07-20T08:36:27.570Z,99729.34
2023-07-20T08:38:29.225Z,99736.03
2023-07-20T08:40:31.110Z,99733.09
2023-07-20T08:42:32.859Z,99730.97
2023-07-20T08:44:35.338Z,99733.09
2023-07-20T08:46:39.453Z,99729.34
2023-07-20T08:48:43.258Z,99738.09
2023-07-20T08:50:46.759Z,99735.09
2023-07-20T08:52:49.539Z,99730.19
2023-07-20T08:54:53.497Z,99725.75
2023-07-20T08:56:55.854Z,99733.75
2023-07-20T08:58:58.042Z,99736.44
2023-07-20T09:01:02.605Z,99739.28
2023-07-20T09:03:06.014Z,99731.50
2023-07-20T09:05:11.012Z,99739.94
2023-07-20T09:07:13.441Z,99734.78
2023-07-20T09:09:14.902Z,99737.91
2023-07-20T09:11:16.364Z,99737.91
2023-07-20T09:13:18.201Z,99736.28
2023-07-20T09:15:20.890Z,99734.41
2023-07-20T09:17:26.700Z,99736.47
2023-07-20T09:19:28.188Z,99738.38
2023-07-20T09:21:31.595Z,99735.72
2023-07-20T09:23:42.268Z,99742.94
2023-07-20T09:25:43.932Z,99742.75
2023-07-20T09:27:47.548Z,99739.53
2023-07-20T09:29:52.613Z,99739.06
2023-07-20T09:32:04.759Z,99727.81
2023-07-20T09:34:06.591Z,99727.75
2023-07-20T09:36:56.892Z,99733.28
2023-07-20T09:39:05.100Z,99722.13
2023-07-20T09:40:55.985Z,99732.00
2023-07-20T09:45:10.435Z,99731.88
2023-07-20T09:47:11.876Z,99732.94
2023-07-20T09:51:19.232Z,99734.94
2023-07-20T09:53:21.487Z,99737.91
2023-07-20T09:55:25.289Z,99728.91
2023-07-20T09:57:27.313Z,99730.28
2023-07-20T09:59:28.762Z,99733.72
2023-07-20T10:03:38.345Z,99720.34
2023-07-20T10:05:47.341Z,99728.75
2023-07-20T10:07:51.427Z,99729.84
2023-07-20T10:09:54.794Z,99726.47
2023-07-20T10:12:11.490Z,99733.94
2023-07-20T10:14:21.623Z,99731.19
2023-07-20T10:16:29.177Z,99725.38
2023-07-20T10:18:36.020Z,99744.75
2023-07-20T10:21:43.591Z,99734.19
2023-07-20T10:23:05.128Z,99742.53
2023-07-20T10:25:08.068Z,99739.28
2023-07-20T10:27:10.269Z,99734.97
2023-07-20T10:29:13.432Z,99733.81
2023-07-20T10:31:16.676Z,99729.34
2023-07-20T10:33:20.374Z,99719.66
2023-07-20T10:35:21.906Z,99723.63
2023-07-20T10:37:49.390Z,99724.09
2023-07-20T10:39:52.687Z,99720.91
2023-07-20T10:42:11.182Z,99716.47
2023-07-20T10:44:14.427Z,99715.94
2023-07-20T10:46:16.207Z,99723.06
2023-07-20T10:48:20.849Z,99719.72
2023-07-20T10:50:24.272Z,99712.22
2023-07-20T10:52:25.812Z,99719.78
2023-07-20T10:54:27.203Z,99718.94
2023-07-20T10:56:31.951Z,99718.50
2023-07-20T10:58:34.740Z,99716.66
2023-07-20T11:00:36.768Z,99718.31
2023-07-20T11:02:45.526Z,99711.84
2023-07-20T11:04:48.837Z,99709.28
2023-07-20T11:06:56.760Z,99709.94
2023-07-20T11:09:16.970Z,99716.56
2023-07-20T11:11:32.991Z,99709.25
2023-07-20T11:13:35.436Z,99698.94
2023-07-20T11:15:58.746Z,99702.47
2023-07-20T11:18:20.082Z,99702.25
2023-07-20T11:20:23.476Z,99702.19
2023-07-20T11:22:25.115Z,99711.31
2023-07-20T11:24:26.653Z,99710.72
2023-07-20T11:26:28.135Z,99702.41
2023-07-20T11:28:31.452Z,99694.25
2023-07-20T11:30:34.890Z,99696.66
2023-07-20T11:32:36.571Z,99694.84
2023-07-20T11:34:38.361Z,99689.28
2023-07-20T11:38:49.413Z,99681.59
2023-07-20T11:40:51.361Z,99685.53
2023-07-20T11:45:01.606Z,99685.09
2023-07-20T11:47:11.010Z,99682.09
2023-07-20T11:49:13.559Z,99678.44
2023-07-20T11:51:18.560Z,99678.63
2023-07-20T11:53:20.295Z,99687.50
2023-07-20T11:55:22.006Z,99679.44
2023-07-20T11:57:23.470Z,99680.44
2023-07-20T11:59:25.242Z,99682.34
2023-07-20T12:01:32.757Z,99677.25
2023-07-20T12:03:34.295Z,99675.75
2023-07-20T12:05:47.817Z,99677.56
2023-07-20T12:07:57.495Z,99675.84
2023-07-20T12:10:10.249Z,99686.22
2023-07-20T12:12:14.524Z,99678.25
2023-07-20T12:14:18.178Z,99672.47
2023-07-20T12:16:21.201Z,99675.72
2023-07-20T12:18:24.212Z,99678.22
2023-07-20T12:20:37.921Z,99681.91
2023-07-20T12:22:41.977Z,99671.25
2023-07-20T12:24:43.570Z,99679.38
2023-07-20T12:26:45.036Z,99674.13
2023-07-20T12:28:46.535Z,99672.84
2023-07-20T12:30:52.659Z,99666.78
2023-07-20T12:32:54.089Z,99675.59
2023-07-20T12:34:55.641Z,99671.47
2023-07-20T12:36:57.122Z,99661.31
2023-07-20T12:38:59.446Z,99670.75
2023-07-20T12:41:04.404Z,99665.72
2023-07-20T12:43:06.157Z,99662.47
2023-07-20T12:45:08.283Z,99665.09
2023-07-20T12:47:09.970Z,99663.00
2023-07-20T12:49:11.395Z,99657.75
2023-07-20T12:51:12.984Z,99664.44
2023-07-20T12:53:14.513Z,99655.97
2023-07-20T12:55:15.972Z,99658.44
2023-07-20T12:57:17.408Z,99656.75
2023-07-20T12:59:18.888Z,99656.88
2023-07-20T13:01:20.333Z,99658.31
2023-07-20T13:09:37.311Z,99648.31
2023-07-20T13:11:38.818Z,99648.88
2023-07-20T13:13:40.279Z,99647.25
2023-07-20T13:15:44.060Z,99643.16
2023-07-20T13:17:45.828Z,99646.47
2023-07-20T13:19:48.407Z,99645.84
2023-07-20T13:21:49.978Z,99636.34
2023-07-20T13:23:51.449Z,99636.63
2023-07-20T13:25:52.886Z,99642.41
2023-07-20T13:27:54.328Z,99645.97
2023-07-20T13:29:55.879Z,99651.16
2023-07-20T13:31:57.402Z,99648.28
2023-07-20T13:34:00.391Z,99640.84
2023-07-20T13:36:08.872Z,99642.44
2023-07-20T13:38:10.767Z,99643.38
2023-07-20T13:40:14.230Z,99644.34
2023-07-20T13:42:16.567Z,99646.41
2023-07-20T13:44:22.732Z,99633.22
2023-07-20T13:46:44.524Z,99642.22
2023-07-20T13:48:46.205Z,99637.66
2023-07-20T13:51:00.360Z,99636.84
2023-07-20T13:55:09.205Z,99638.47
2023-07-20T13:57:10.654Z,99631.72
2023-07-20T14:01:13.607Z,99635.00
2023-07-20T14:07:24.823Z,99632.41
2023-07-20T14:09:26.532Z,99619.81
2023-07-20T14:13:46.670Z,99632.31
2023-07-20T14:15:49.638Z,99622.38
2023-07-20T14:17:51.193Z,99627.91
2023-07-20T14:19:54.441Z,99620.63
2023-07-20T14:21:56.168Z,99617.66
2023-07-20T14:24:01.715Z,99613.34
2023-07-20T14:26:06.961Z,99616.13
2023-07-20T14:28:09.065Z,99623.16
2023-07-20T14:30:11.124Z,99619.91
2023-07-20T14:32:12.688Z,99613.03
2023-07-20T14:34:15.925Z,99610.91
2023-07-20T14:38:20.283Z,99612.22
2023-07-20T14:40:21.764Z,99605.47
2023-07-20T14:42:23.310Z,99598.78
2023-07-20T14:44:24.792Z,99603.72
2023-07-20T14:46:26.440Z,99598.00
2023-07-20T14:48:28.574Z,99611.13
2023-07-20T14:50:30.141Z,99602.66
2023-07-20T14:52:31.782Z,99599.50
2023-07-20T14:54:33.226Z,99602.34
2023-07-20T14:56:34.746Z,99591.38
2023-07-20T14:58:36.327Z,99597.09
2023-07-20T15:00:38.266Z,99600.28
2023-07-20T15:02:42.275Z,99599.63
2023-07-20T15:04:48.570Z,99593.31
2023-07-20T15:06:50.027Z,99592.13
2023-07-20T15:08:51.459Z,99597.72
2023-07-20T15:10:52.908Z,99589.78
2023-07-20T15:12:54.418Z,99589.59
2023-07-20T15:15:07.182Z,99586.78
2023-07-20T15:17:09.472Z,99588.09
2023-07-20T15:19:12.600Z,99586.56
2023-07-20T15:21:14.299Z,99588.97
2023-07-20T15:23:15.843Z,99584.03
2023-07-20T15:25:17.354Z,99591.00
2023-07-20T15:27:18.835Z,99586.84
2023-07-20T15:33:31.915Z,99574.78
2023-07-20T15:35:33.377Z,99583.13
2023-07-20T15:37:34.893Z,99574.88
2023-07-20T15:39:36.403Z,99579.09
2023-07-20T15:41:37.862Z,99572.03
2023-07-20T15:43:39.594Z,99575.41
2023-07-20T15:45:41.640Z,99572.31
2023-07-20T15:47:43.194Z,99564.00
2023-07-20T15:49:46.904Z,99563.63
2023-07-20T15:51:48.699Z,99566.53
2023-07-20T15:53:50.154Z,99566.31
2023-07-20T15:55:57.383Z,99570.41
2023-07-20T15:57:58.916Z,99573.50
2023-07-20T16:00:04.162Z,99567.47
2023-07-20T16:02:07.892Z,99548.72
2023-07-20T16:04:10.000Z,99553.06
2023-07-20T16:06:11.479Z,99548.53
2023-07-20T16:08:12.912Z,99536.34
2023-07-20T16:10:14.403Z,99554.72
2023-07-20T16:12:15.909Z,99545.78
2023-07-20T16:14:17.369Z,99545.78
2023-07-20T16:16:19.189Z,99549.53
2023-07-20T16:18:20.622Z,99530.03
2023-07-20T16:20:22.267Z,99534.56
2023-07-20T16:22:23.757Z,99532.09
2023-07-20T16:24:25.221Z,99534.41
2023-07-20T16:26:26.862Z,99533.66
2023-07-20T16:28:28.450Z,99528.09
2023-07-20T16:30:29.985Z,99532.84
2023-07-20T16:32:31.531Z,99521.47
2023-07-20T16:34:48.893Z,99530.97
2023-07-20T16:39:27.122Z,99525.06
2023-07-20T16:42:01.947Z,99524.56
2023-07-20T16:45:44.367Z,99528.53
2023-07-20T16:47:45.977Z,99527.13
2023-07-20T16:49:47.482Z,99521.22
2023-07-20T16:51:49.107Z,99522.41
2023-07-20T16:53:50.593Z,99525.44
2023-07-20T16:55:53.324Z,99512.13
2023-07-20T16:57:54.786Z,99512.84
2023-07-20T16:59:56.296Z,99514.88
2023-07-20T17:01:57.771Z,99507.50
2023-07-20T17:03:59.236Z,99506.84
2023-07-20T17:06:00.894Z,99494.63
2023-07-20T17:08:02.427Z,99500.41
2023-07-20T17:10:04.497Z,99503.88
2023-07-20T17:12:06.427Z,99492.31
2023-07-20T17:14:09.260Z,99491.91
2023-07-20T17:16:10.766Z,99495.34
2023-07-20T17:18:12.327Z,99491.53
2023-07-20T17:22:19.023Z,99497.81
2023-07-20T17:30:33.789Z,99476.66
2023-07-20T17:32:37.929Z,99479.50
2023-07-20T17:34:41.246Z,99479.00
2023-07-20T17:38:47.147Z,99475.94
2023-07-20T17:40:48.729Z,99478.47
2023-07-20T17:44:55.310Z,99466.38
2023-07-20T17:49:03.527Z,99456.63
2023-07-20T17:51:05.005Z,99454.25
2023-07-20T17:53:06.476Z,99447.97
2023-07-20T17:55:08.390Z,99449.88
2023-07-20T17:57:09.806Z,99451.94
2023-07-20T17:59:11.279Z,99448.78
2023-07-20T18:01:12.805Z,99451.25
2023-07-20T18:03:14.265Z,99446.94
2023-07-20T18:05:15.827Z,99444.59
2023-07-20T18:07:17.258Z,99445.16
2023-07-20T18:09:18.707Z,99442.28
2023-07-20T18:11:20.222Z,99445.94
2023-07-20T18:13:21.676Z,99447.66
2023-07-20T18:15:23.156Z,99444.34
2023-07-20T18:17:26.267Z,99441.69
2023-07-20T18:19:28.629Z,99442.50
2023-07-20T18:21:30.118Z,99438.44
2023-07-20T18:23:31.613Z,99440.47
2023-07-20T18:25:33.035Z,99438.13
2023-07-20T18:27:34.580Z,99441.59
2023-07-20T18:29:35.990Z,99441.59
2023-07-20T18:31:37.506Z,99433.28
2023-07-20T18:33:39.825Z,99441.69
2023-07-20T18:35:41.888Z,99442.63
2023-07-20T18:37:43.544Z,99436.75
2023-07-20T18:39:48.357Z,99437.28
2023-07-20T18:41:49.800Z,99435.50
2023-07-20T18:43:51.247Z,99432.69
2023-07-20T18:45:55.946Z,99436.19
2023-07-20T18:47:59.437Z,99427.47
2023-07-20T18:50:01.716Z,99435.50
2023-07-20T18:52:06.405Z,99435.34
2023-07-20T18:54:07.905Z,99440.44
2023-07-20T18:56:09.338Z,99434.19
2023-07-20T18:58:10.794Z,99434.09
2023-07-20T19:00:14.907Z,99441.69
2023-07-20T19:02:16.435Z,99443.41
2023-07-20T19:04:18.740Z,99449.69
2023-07-20T19:06:20.206Z,99454.66
2023-07-20T19:08:21.695Z,99452.19
2023-07-20T19:10:23.160Z,99449.59
2023-07-20T19:12:24.832Z,99448.69
2023-07-20T19:14:26.355Z,99447.41
2023-07-20T19:16:28.857Z,99442.59
2023-07-20T19:18:31.137Z,99439.41
2023-07-20T19:20:32.926Z,99435.22
2023-07-20T19:22:35.184Z,99441.84
2023-07-20T19:24:36.678Z,99432.97
2023-07-20T19:26:38.143Z,99436.78
2023-07-20T19:28:40.661Z,99442.72
2023-07-20T19:30:42.152Z,99438.81
2023-07-20T19:32:43.723Z,99440.47
2023-07-20T19:34:45.167Z,99440.56
2023-07-20T19:36:46.647Z,99441.59
2023-07-20T19:38:48.514Z,99445.94
2023-07-20T19:40:49.961Z,99454.50
2023-07-20T19:42:51.540Z,99452.91
2023-07-20T19:44:52.964Z,99460.00
2023-07-20T19:46:56.055Z,99460.06
2023-07-20T19:48:58.314Z,99460.41
2023-07-20T19:50:59.890Z,99459.19
2023-07-20T19:53:04.116Z,99466.50
2023-07-20T19:55:23.318Z,99457.16
2023-07-20T19:59:29.072Z,99455.38
2023-07-20T20:05:40.496Z,99464.09
2023-07-20T20:07:42.206Z,99467.28
2023-07-20T20:09:43.731Z,99461.13
2023-07-20T20:11:47.130Z,99463.34
2023-07-20T20:13:51.332Z,99465.25
2023-07-20T20:15:52.945Z,99458.56
2023-07-20T20:17:56.140Z,99463.19
2023-07-20T20:19:57.740Z,99463.69
2023-07-20T20:22:02.217Z,99459.19
2023-07-20T20:24:04.186Z,99455.03
2023-07-20T20:26:05.688Z,99458.22
2023-07-20T20:28:07.262Z,99455.03
2023-07-20T20:30:09.414Z,99453.69
2023-07-20T20:32:11.929Z,99452.38
2023-07-20T20:34:13.373Z,99452.16
2023-07-20T20:36:16.582Z,99454.88
2023-07-20T20:38:24.594Z,99450.91
2023-07-20T20:40:27.915Z,99452.31
2023-07-20T20:42:29.382Z,99446.59
2023-07-20T20:44:30.858Z,99450.91
2023-07-20T20:46:32.313Z,99445.81
2023-07-20T20:48:36.889Z,99444.50
2023-07-20T20:50:45.741Z,99452.03
2023-07-20T20:52:50.226Z,99442.38
2023-07-20T20:54:51.661Z,99446.22
2023-07-20T20:56:53.121Z,99447.56
2023-07-20T20:58:54.561Z,99450.78
2023-07-20T21:01:01.947Z,99449.75
2023-07-20T21:03:03.766Z,99443.59
2023-07-20T21:05:07.046Z,99437.75
2023-07-20T21:07:08.449Z,99438.31
2023-07-20T21:09:09.945Z,99438.06
2023-07-20T21:11:11.557Z,99432.41
2023-07-20T21:13:13.563Z,99439.13
2023-07-20T21:15:15.494Z,99435.66
2023-07-20T21:17:17.101Z,99428.50
2023-07-20T21:19:18.564Z,99434.69
2023-07-20T21:21:20.489Z,99426.66
2023-07-20T21:23:22.323Z,99429.09
2023-07-20T21:25:23.849Z,99430.97
2023-07-20T21:27:25.297Z,99431.25
2023-07-20T21:29:26.853Z,99434.78
2023-07-20T21:31:28.279Z,99438.00
2023-07-20T21:33:29.743Z,99434.78
2023-07-20T21:35:31.608Z,99440.44
2023-07-20T21:37:33.034Z,99438.34
2023-07-20T21:39:34.533Z,99439.41
2023-07-20T21:41:35.997Z,99438.34
2023-07-20T21:43:37.520Z,99441.34
2023-07-20T21:45:40.891Z,99440.00
2023-07-20T21:47:42.460Z,99443.22
2023-07-20T21:49:43.928Z,99438.50
2023-07-20T21:51:45.429Z,99444.13
2023-07-20T21:53:46.927Z,99445.19
2023-07-20T21:55:51.480Z,99439.28
2023-07-20T21:57:53.023Z,99446.47
2023-07-20T21:59:54.605Z,99445.25
2023-07-20T22:02:00.160Z,99458.16
2023-07-20T22:04:02.141Z,99454.38
2023-07-20T22:06:04.179Z,99460.81
2023-07-20T22:08:05.604Z,99468.28
2023-07-20T22:10:07.759Z,99475.78
2023-07-20T22:12:11.726Z,99472.63
